Avisos AEMET Campiña SevillanaSin Avisos+ INFO
Sevilla, Andalucía, España
Idioma: es English Français Deutsch Italiano Português Español
 

Informes METAR

 

LEZL - Sevilla, Spain
Distancia de la estación: ENE 8km
Actualización: 26/09/2022 09:00
Poco nuboso
Poco nuboso
 Viento de E
Viento: E 7 km/h
Temperatura: 17°C
Rocío: 14°C
Humedad: 83%
Barómetro: 1012 hPa
Nubes: Poco nuboso
Visibilidad: 10 km
Detalles de las nubes: Poco nuboso 671 m
2022/09/26 07:00 LEZL 260700Z 10004KT 070V180 9999 FEW022 17/14 Q1012 NOSIG
LEMO - Morón, Spain
Distancia de la estación: SE 43km
Actualización: 26/09/2022 09:30
Despejado
Despejado
 Viento de SSO
Viento: SSO 24 km/h
Temperatura: 18°C
Rocío: 13°C
Humedad: 73%
Barómetro: 1012 hPa
Resumen: Despejado
Visibilidad: mayor de 10 km
2022/09/26 07:30 LEMO 260730Z 20013KT 170V230 CAVOK 18/13 Q1012 NOSIG
LEJR - Jeréz, Spain
Distancia de la estación: S 71km
Actualización: 26/09/2022 09:30
Poco nuboso
Poco nuboso
 Viento de SSE
Viento: SSE 7 km/h
Temperatura: 18°C
Rocío: 15°C
Humedad: 83%
Barómetro: 1013 hPa
Nubes: Poco nuboso
Visibilidad: 10 km
Detalles de las nubes: Poco nuboso 671 m
2022/09/26 07:30 LEJR 260730Z 15004KT 110V200 9999 FEW022 18/15 Q1013
 
LERT - Rota, Spain
Distancia de la estación: SSO 89km
Actualización: 26/09/2022 09:00
Poco nuboso
Poco nuboso
 Viento de S
Viento: S 7 km/h
Temperatura: 17°C
Rocío: 14°C
Humedad: 83%
Barómetro: 1012 hPa
Nubes: Poco nuboso
Visibilidad: 10 km
Detalles de las nubes: Poco nuboso 579 m
2022/09/26 07:00 LERT 260700Z 19004KT 9999 FEW019 17/14 Q1012 NOSIG
LEMG - Málaga, Spain
Distancia de la estación: ESE 157km
Actualización: 26/09/2022 09:00
Despejado
Despejado
 Viento de ONO
Viento: ONO 6 km/h
Temperatura: 16°C
Rocío: 10°C
Humedad: 68%
Barómetro: 1012 hPa
Resumen: Despejado
Visibilidad: mayor de 10 km
2022/09/26 07:00 LEMG 260700Z 30003KT 270V330 CAVOK 16/10 Q1012 NOSIG
LEBA - Córdoba, Spain
Distancia de la estación: ENE 115km
Actualización: 26/09/2022 09:00
Muy nuboso
Muy nuboso
 Viento de variable
Viento: variable 4 km/h
Temperatura: 16°C
Rocío: 12°C
Humedad: 77%
Barómetro: 1013 hPa
Nubes: Muy nuboso
Visibilidad: 10 km
Detalles de las nubes: Muy nuboso 640 m
Muy nuboso 853 m
2022/09/26 07:00 LEBA 260700Z VRB02KT 9999 BKN021 BKN028 16/12 Q1013
 
LEGR - Granada, Spain
Distancia de la estación: E 198km
Actualización: 26/09/2022 09:00
Despejado
Despejado
 Viento de calm
Viento: Calma
Temperatura: 11°C
Rocío: 8°C
Humedad: 82%
Barómetro: 1014 hPa
Resumen: Despejado
Visibilidad: mayor de 10 km
2022/09/26 07:00 LEGR 260700Z 00000KT CAVOK 11/08 Q1014
LEAM - Almería, Spain
Distancia de la estación: E 326km
Actualización: 26/09/2022 09:00
Poco nuboso
Poco nuboso
 Viento de variable
Viento: variable 4 km/h
Temperatura: 18°C
Rocío: 14°C
Humedad: 78%
Barómetro: 1011 hPa
Nubes: Poco nuboso
Visibilidad: 10 km
Detalles de las nubes: Poco nuboso 914 m
2022/09/26 07:00 LEAM 260700Z VRB02KT 9999 FEW030 18/14 Q1011
LEMD - Madrid/Barajas, Spain
Distancia de la estación: NNE 402km
Actualización: 26/09/2022 09:00
Parcialmente nuboso
Parcialmente nuboso
 Viento de N
Viento: N 6 km/h
Temperatura: 12°C
Rocío: 4°C
Humedad: 58%
Barómetro: 1015 hPa
Nubes: Parcialmente nuboso
Visibilidad: 10 km
Detalles de las nubes: Poco nuboso 1372 m
Parcialmente nuboso 2286 m
2022/09/26 07:00 LEMD 260700Z 35003KT 9999 FEW045 SCT075 12/04 Q1015 NOSIG
 
LEVD - Valladolid, Spain
Distancia de la estación: N 492km
Actualización: 26/09/2022 09:00
Despejado
Despejado
 Viento de NNE
Viento: NNE 11 km/h
Temperatura: 7°C
Sensación térmica: 5°C
Rocío: 5°C
Humedad: 87%
Barómetro: 1017 hPa
Resumen: Despejado
Visibilidad: mayor de 10 km
2022/09/26 07:00 LEVD 260700Z 03006KT CAVOK 07/05 Q1017
LEBL - Barcelona, Spain
Distancia de la estación: NE 816km
Actualización: 26/09/2022 09:00
Poco nuboso
Poco nuboso
 Viento de NNO
Viento: NNO 19 km/h
Temperatura: 16°C
Rocío: 11°C
Humedad: 72%
Barómetro: 1012 hPa
Nubes: Poco nuboso
Visibilidad: 10 km
Detalles de las nubes: Poco nuboso 1067 m
2022/09/26 07:00 LEBL 260700Z 33010KT 9999 FEW035 16/11 Q1012 NOSIG
LEVC - Valencia, Spain
Distancia de la estación: ENE 535km
Actualización: 26/09/2022 09:00
Muy nuboso
Muy nuboso
 Viento de ONO
Viento: ONO 7 km/h
Temperatura: 18°C
Rocío: 14°C
Humedad: 78%
Barómetro: 1012 hPa
Nubes: Muy nuboso
Visibilidad: 10 km
Detalles de las nubes: Poco nuboso 762 m
Muy nuboso 1219 m
2022/09/26 07:00 LEVC 260700Z 30004KT 9999 FEW025 BKN040 18/14 Q1012 NOSIG